sensor_id;sensor_type;location;lat;lon;timestamp;pressure;altitude;pressure_sealevel;temperature;humidity
46199;BME280;31928;52.104;10.030;2023-01-25T00:00:29;102720.13;;;5.13;54.47
46199;BME280;31928;52.104;10.030;2023-01-25T00:02:56;102721.09;;;5.12;54.38
46199;BME280;31928;52.104;10.030;2023-01-25T00:05:23;102720.97;;;5.35;54.55
46199;BME280;31928;52.104;10.030;2023-01-25T00:07:49;102716.53;;;5.14;54.59
46199;BME280;31928;52.104;10.030;2023-01-25T00:10:16;102718.44;;;5.12;54.42
46199;BME280;31928;52.104;10.030;2023-01-25T00:12:42;102714.09;;;5.11;54.42
46199;BME280;31928;52.104;10.030;2023-01-25T00:15:09;102717.81;;;5.09;54.41
46199;BME280;31928;52.104;10.030;2023-01-25T00:17:36;102719.03;;;5.05;54.47
46199;BME280;31928;52.104;10.030;2023-01-25T00:20:03;102715.69;;;5.03;54.65
46199;BME280;31928;52.104;10.030;2023-01-25T00:22:30;102710.69;;;4.98;54.47
46199;BME280;31928;52.104;10.030;2023-01-25T00:24:56;102713.47;;;4.97;54.43
46199;BME280;31928;52.104;10.030;2023-01-25T00:27:23;102709.25;;;4.94;54.76
46199;BME280;31928;52.104;10.030;2023-01-25T00:29:50;102707.81;;;4.90;54.57
46199;BME280;31928;52.104;10.030;2023-01-25T00:34:50;102702.75;;;4.87;55.24
46199;BME280;31928;52.104;10.030;2023-01-25T00:39:44;102688.47;;;4.77;55.32
46199;BME280;31928;52.104;10.030;2023-01-25T00:42:11;102687.53;;;5.00;54.86
46199;BME280;31928;52.104;10.030;2023-01-25T00:44:38;102685.81;;;4.77;54.93
46199;BME280;31928;52.104;10.030;2023-01-25T00:47:05;102685.44;;;4.71;54.99
46199;BME280;31928;52.104;10.030;2023-01-25T00:49:32;102678.56;;;4.69;55.36
46199;BME280;31928;52.104;10.030;2023-01-25T00:51:59;102673.38;;;4.89;55.12
46199;BME280;31928;52.104;10.030;2023-01-25T00:54:26;102672.75;;;4.64;55.50
46199;BME280;31928;52.104;10.030;2023-01-25T00:56:52;102674.69;;;4.62;55.37
46199;BME280;31928;52.104;10.030;2023-01-25T00:59:23;102676.00;;;4.56;55.71
46199;BME280;31928;52.104;10.030;2023-01-25T01:01:50;102665.63;;;4.53;55.53
46199;BME280;31928;52.104;10.030;2023-01-25T01:04:18;102672.84;;;4.51;55.90
46199;BME280;31928;52.104;10.030;2023-01-25T01:06:45;102665.88;;;4.50;56.00
46199;BME280;31928;52.104;10.030;2023-01-25T01:09:14;102669.22;;;4.52;56.19
46199;BME280;31928;52.104;10.030;2023-01-25T01:11:41;102661.63;;;4.48;56.32
46199;BME280;31928;52.104;10.030;2023-01-25T01:14:08;102663.31;;;4.49;56.25
46199;BME280;31928;52.104;10.030;2023-01-25T01:16:35;102666.09;;;4.47;56.15
46199;BME280;31928;52.104;10.030;2023-01-25T01:19:02;102661.63;;;4.48;56.36
46199;BME280;31928;52.104;10.030;2023-01-25T01:21:29;102663.31;;;4.71;55.68
46199;BME280;31928;52.104;10.030;2023-01-25T01:23:55;102671.19;;;4.50;56.18
46199;BME280;31928;52.104;10.030;2023-01-25T01:26:22;102665.16;;;4.70;55.69
46199;BME280;31928;52.104;10.030;2023-01-25T01:28:48;102665.97;;;4.49;56.21
46199;BME280;31928;52.104;10.030;2023-01-25T01:31:21;102671.28;;;4.49;56.21
46199;BME280;31928;52.104;10.030;2023-01-25T01:33:52;102669.72;;;4.46;56.43
46199;BME280;31928;52.104;10.030;2023-01-25T01:36:22;102661.97;;;4.43;56.48
46199;BME280;31928;52.104;10.030;2023-01-25T01:38:49;102656.16;;;4.38;56.68
46199;BME280;31928;52.104;10.030;2023-01-25T01:41:16;102655.34;;;4.38;56.41
46199;BME280;31928;52.104;10.030;2023-01-25T01:43:43;102642.19;;;4.36;56.70
46199;BME280;31928;52.104;10.030;2023-01-25T01:46:21;102643.50;;;4.42;56.50
46199;BME280;31928;52.104;10.030;2023-01-25T01:48:54;102642.31;;;4.35;56.88
46199;BME280;31928;52.104;10.030;2023-01-25T01:51:48;102636.38;;;4.42;56.62
46199;BME280;31928;52.104;10.030;2023-01-25T01:56:53;102645.66;;;4.37;57.21
46199;BME280;31928;52.104;10.030;2023-01-25T01:59:23;102640.59;;;4.34;57.03
46199;BME280;31928;52.104;10.030;2023-01-25T02:01:52;102642.66;;;4.30;57.33
46199;BME280;31928;52.104;10.030;2023-01-25T02:04:21;102632.88;;;4.31;56.93
46199;BME280;31928;52.104;10.030;2023-01-25T02:07:03;102636.75;;;4.38;57.03
46199;BME280;31928;52.104;10.030;2023-01-25T02:09:32;102639.03;;;4.31;56.97
46199;BME280;31928;52.104;10.030;2023-01-25T02:12:02;102614.63;;;4.26;57.00
46199;BME280;31928;52.104;10.030;2023-01-25T02:14:29;102619.13;;;4.26;56.94
46199;BME280;31928;52.104;10.030;2023-01-25T02:16:56;102628.16;;;4.23;57.36
46199;BME280;31928;52.104;10.030;2023-01-25T02:19:34;102618.13;;;4.27;57.33
46199;BME280;31928;52.104;10.030;2023-01-25T02:22:07;102624.44;;;4.26;57.21
46199;BME280;31928;52.104;10.030;2023-01-25T02:24:36;102623.19;;;4.19;57.15
46199;BME280;31928;52.104;10.030;2023-01-25T02:27:05;102618.13;;;4.16;57.13
46199;BME280;31928;52.104;10.030;2023-01-25T02:29:32;102620.03;;;4.14;57.51
46199;BME280;31928;52.104;10.030;2023-01-25T02:32:02;102615.47;;;4.16;57.47
46199;BME280;31928;52.104;10.030;2023-01-25T02:34:29;102623.06;;;4.10;57.30
46199;BME280;31928;52.104;10.030;2023-01-25T02:36:56;102608.94;;;4.09;57.45
46199;BME280;31928;52.104;10.030;2023-01-25T02:39:23;102603.72;;;4.08;57.46
46199;BME280;31928;52.104;10.030;2023-01-25T02:41:51;102593.97;;;4.08;57.61
46199;BME280;31928;52.104;10.030;2023-01-25T02:44:24;102598.09;;;4.12;57.73
46199;BME280;31928;52.104;10.030;2023-01-25T02:46:52;102601.69;;;4.11;57.66
46199;BME280;31928;52.104;10.030;2023-01-25T02:49:21;102590.97;;;4.13;57.65
46199;BME280;31928;52.104;10.030;2023-01-25T02:51:50;102593.28;;;4.17;57.89
46199;BME280;31928;52.104;10.030;2023-01-25T02:54:18;102594.09;;;4.17;57.83
46199;BME280;31928;52.104;10.030;2023-01-25T02:56:46;102590.50;;;4.18;57.90
46199;BME280;31928;52.104;10.030;2023-01-25T02:59:13;102590.25;;;4.21;57.95
46199;BME280;31928;52.104;10.030;2023-01-25T03:01:40;102593.53;;;4.47;57.12
46199;BME280;31928;52.104;10.030;2023-01-25T03:04:08;102595.72;;;4.31;57.33
46199;BME280;31928;52.104;10.030;2023-01-25T03:06:35;102583.41;;;4.30;57.60
46199;BME280;31928;52.104;10.030;2023-01-25T03:09:03;102585.09;;;4.31;57.47
46199;BME280;31928;52.104;10.030;2023-01-25T03:11:30;102571.56;;;4.34;57.66
46199;BME280;31928;52.104;10.030;2023-01-25T03:13:57;102574.22;;;4.56;57.06
46199;BME280;31928;52.104;10.030;2023-01-25T03:16:23;102576.50;;;4.38;57.47
46199;BME280;31928;52.104;10.030;2023-01-25T03:18:53;102570.97;;;4.41;57.73
46199;BME280;31928;52.104;10.030;2023-01-25T03:21:21;102571.19;;;4.38;57.66
46199;BME280;31928;52.104;10.030;2023-01-25T03:23:54;102554.91;;;4.43;57.77
46199;BME280;31928;52.104;10.030;2023-01-25T03:26:22;102552.53;;;4.40;57.63
46199;BME280;31928;52.104;10.030;2023-01-25T03:28:49;102557.69;;;4.41;57.80
46199;BME280;31928;52.104;10.030;2023-01-25T03:31:16;102548.66;;;4.44;57.81
46199;BME280;31928;52.104;10.030;2023-01-25T03:33:43;102548.66;;;4.44;57.51
46199;BME280;31928;52.104;10.030;2023-01-25T03:36:10;102548.66;;;4.44;57.94
46199;BME280;31928;52.104;10.030;2023-01-25T03:38:37;102548.41;;;4.47;58.04
46199;BME280;31928;52.104;10.030;2023-01-25T03:41:03;102550.09;;;4.48;57.92
46199;BME280;31928;52.104;10.030;2023-01-25T03:43:30;102550.09;;;4.48;57.79
46199;BME280;31928;52.104;10.030;2023-01-25T03:45:59;102557.81;;;4.51;58.15
46199;BME280;31928;52.104;10.030;2023-01-25T03:48:26;102553.47;;;4.50;58.14
46199;BME280;31928;52.104;10.030;2023-01-25T03:50:55;102554.06;;;4.53;58.34
46199;BME280;31928;52.104;10.030;2023-01-25T03:53:31;102551.91;;;4.58;57.89
46199;BME280;31928;52.104;10.030;2023-01-25T03:56:01;102549.38;;;4.57;57.95
46199;BME280;31928;52.104;10.030;2023-01-25T03:58:29;102556.47;;;4.56;58.00
46199;BME280;31928;52.104;10.030;2023-01-25T04:00:58;102545.72;;;4.58;58.29
46199;BME280;31928;52.104;10.030;2023-01-25T04:03:25;102542.22;;;4.57;58.23
46199;BME280;31928;52.104;10.030;2023-01-25T04:05:55;102529.78;;;4.58;58.23
46199;BME280;31928;52.104;10.030;2023-01-25T04:08:23;102534.13;;;4.59;57.98
46199;BME280;31928;52.104;10.030;2023-01-25T04:10:51;102529.56;;;4.61;58.06
46199;BME280;31928;52.104;10.030;2023-01-25T04:13:19;102518.94;;;4.61;58.18
46199;BME280;31928;52.104;10.030;2023-01-25T04:15:46;102524.25;;;4.61;58.12
46199;BME280;31928;52.104;10.030;2023-01-25T04:18:13;102518.91;;;4.82;57.16
46199;BME280;31928;52.104;10.030;2023-01-25T16:22:39;101818.66;;;4.03;58.62
46199;BME280;31928;52.104;10.030;2023-01-25T16:25:06;101809.06;;;4.21;58.07
46199;BME280;31928;52.104;10.030;2023-01-25T16:27:34;101800.25;;;4.02;58.88
46199;BME280;31928;52.104;10.030;2023-01-25T16:30:03;101795.91;;;4.01;59.09
46199;BME280;31928;52.104;10.030;2023-01-25T16:32:30;101796.19;;;3.98;59.50
46199;BME280;31928;52.104;10.030;2023-01-25T16:34:56;101796.03;;;3.99;59.42
46199;BME280;31928;52.104;10.030;2023-01-25T16:37:23;101798.69;;;3.99;59.39
46199;BME280;31928;52.104;10.030;2023-01-25T16:39:49;101791.41;;;4.01;59.48
46199;BME280;31928;52.104;10.030;2023-01-25T16:42:17;101794.06;;;4.01;59.71
46199;BME280;31928;52.104;10.030;2023-01-25T16:44:47;101789.50;;;4.03;59.73
46199;BME280;31928;52.104;10.030;2023-01-25T16:47:14;101792.00;;;4.05;59.90
46199;BME280;31928;52.104;10.030;2023-01-25T16:49:41;101779.44;;;4.07;59.65
46199;BME280;31928;52.104;10.030;2023-01-25T16:52:09;101781.81;;;4.10;59.67
46199;BME280;31928;52.104;10.030;2023-01-25T16:54:37;101774.81;;;4.09;59.50
46199;BME280;31928;52.104;10.030;2023-01-25T16:57:03;101778.06;;;4.31;58.75
46199;BME280;31928;52.104;10.030;2023-01-25T16:59:44;101770.78;;;4.14;59.09
46199;BME280;31928;52.104;10.030;2023-01-25T17:02:11;101762.81;;;4.14;59.11
46199;BME280;31928;52.104;10.030;2023-01-25T17:04:38;101760.19;;;4.33;58.35
46199;BME280;31928;52.104;10.030;2023-01-25T17:07:04;101761.84;;;4.15;59.18
46199;BME280;31928;52.104;10.030;2023-01-25T17:09:31;101769.94;;;4.14;59.40
46199;BME280;31928;52.104;10.030;2023-01-25T17:11:57;101763.81;;;4.13;59.36
46199;BME280;31928;52.104;10.030;2023-01-25T17:14:24;101758.50;;;4.13;59.45
46199;BME280;31928;52.104;10.030;2023-01-25T17:16:51;101753.19;;;4.13;59.51
46199;BME280;31928;52.104;10.030;2023-01-25T17:19:19;101745.91;;;4.15;59.72
46199;BME280;31928;52.104;10.030;2023-01-25T17:21:46;101747.75;;;4.15;59.53
46199;BME280;31928;52.104;10.030;2023-01-25T17:24:17;101742.31;;;4.16;59.66
46199;BME280;31928;52.104;10.030;2023-01-25T17:26:46;101748.56;;;4.15;59.32
46199;BME280;31928;52.104;10.030;2023-01-25T17:29:12;101738.69;;;4.17;59.52
46199;BME280;31928;52.104;10.030;2023-01-25T17:31:39;101741.31;;;4.17;59.19
46199;BME280;31928;52.104;10.030;2023-01-25T17:34:10;101738.53;;;4.18;59.57
46199;BME280;31928;52.104;10.030;2023-01-25T17:36:36;101724.69;;;4.15;59.43
46199;BME280;31928;52.104;10.030;2023-01-25T17:39:06;101736.69;;;4.19;59.73
46199;BME280;31928;52.104;10.030;2023-01-25T17:41:33;101736.16;;;4.16;59.71
46199;BME280;31928;52.104;10.030;2023-01-25T17:44:00;101742.31;;;4.16;59.44
46199;BME280;31928;52.104;10.030;2023-01-25T17:46:30;101736.03;;;4.17;59.53
46199;BME280;31928;52.104;10.030;2023-01-25T17:48:59;101723.56;;;4.17;59.35
46199;BME280;31928;52.104;10.030;2023-01-25T17:51:27;101725.41;;;4.17;59.40
46199;BME280;31928;52.104;10.030;2023-01-25T17:53:54;101718.28;;;4.17;59.50
46199;BME280;31928;52.104;10.030;2023-01-25T17:56:22;101725.41;;;4.17;59.21
46199;BME280;31928;52.104;10.030;2023-01-25T17:58:49;101712.13;;;4.17;59.11
46199;BME280;31928;52.104;10.030;2023-01-25T18:01:18;101714.66;;;4.18;59.51
46199;BME280;31928;52.104;10.030;2023-01-25T18:03:46;101707.66;;;4.17;59.47
46199;BME280;31928;52.104;10.030;2023-01-25T18:06:16;101710.31;;;4.17;59.06
46199;BME280;31928;52.104;10.030;2023-01-25T18:08:50;101701.53;;;4.17;59.32
46199;BME280;31928;52.104;10.030;2023-01-25T18:11:20;101692.72;;;4.16;59.40
46199;BME280;31928;52.104;10.030;2023-01-25T18:13:48;101695.50;;;4.15;59.38
46199;BME280;31928;52.104;10.030;2023-01-25T18:16:16;101698.44;;;4.12;59.31
46199;BME280;31928;52.104;10.030;2023-01-25T18:18:44;101688.66;;;4.13;59.28
46199;BME280;31928;52.104;10.030;2023-01-25T18:21:16;101690.19;;;4.15;59.08
46199;BME280;31928;52.104;10.030;2023-01-25T18:23:47;101688.66;;;4.13;59.01
46199;BME280;31928;52.104;10.030;2023-01-25T18:26:18;101692.00;;;4.33;58.66
46199;BME280;31928;52.104;10.030;2023-01-25T18:28:44;101687.53;;;4.15;58.91
46199;BME280;31928;52.104;10.030;2023-01-25T18:31:13;101684.31;;;4.12;59.17
46199;BME280;31928;52.104;10.030;2023-01-25T18:33:43;101685.31;;;4.11;58.81
46199;BME280;31928;52.104;10.030;2023-01-25T18:36:14;101687.84;;;4.12;58.91
46199;BME280;31928;52.104;10.030;2023-01-25T18:38:40;101684.75;;;4.07;58.91
46199;BME280;31928;52.104;10.030;2023-01-25T18:41:07;101677.75;;;4.06;58.88
46199;BME280;31928;52.104;10.030;2023-01-25T18:43:34;101684.19;;;4.04;59.35
46199;BME280;31928;52.104;10.030;2023-01-25T18:46:01;101686.97;;;4.02;59.25
46199;BME280;31928;52.104;10.030;2023-01-25T18:48:30;101674.69;;;4.01;59.08
46199;BME280;31928;52.104;10.030;2023-01-25T18:50:58;101684.75;;;3.98;59.21
46199;BME280;31928;52.104;10.030;2023-01-25T18:53:25;101684.88;;;3.96;59.39
46199;BME280;31928;52.104;10.030;2023-01-25T18:58:25;101678.06;;;3.94;59.34
46199;BME280;31928;52.104;10.030;2023-01-25T19:01:02;101668.00;;;3.97;59.51
46199;BME280;31928;52.104;10.030;2023-01-25T19:03:30;101671.47;;;3.88;59.91
46199;BME280;31928;52.104;10.030;2023-01-25T19:05:57;101659.63;;;4.11;58.62
46199;BME280;31928;52.104;10.030;2023-01-25T19:08:24;101656.13;;;3.92;59.55
46199;BME280;31928;52.104;10.030;2023-01-25T19:11:01;101652.38;;;3.94;59.64
46199;BME280;31928;52.104;10.030;2023-01-25T19:13:28;101650.25;;;3.88;60.08
46199;BME280;31928;52.104;10.030;2023-01-25T19:16:12;101647.34;;;3.91;60.16
46199;BME280;31928;52.104;10.030;2023-01-25T19:18:41;101640.66;;;3.87;60.09
46199;BME280;31928;52.104;10.030;2023-01-25T19:21:17;101636.75;;;3.91;60.34
46199;BME280;31928;52.104;10.030;2023-01-25T19:23:44;101639.66;;;3.88;60.33
46199;BME280;31928;52.104;10.030;2023-01-25T19:26:14;101631.53;;;3.90;60.13
46199;BME280;31928;52.104;10.030;2023-01-25T19:28:42;101626.25;;;3.90;60.52
46199;BME280;31928;52.104;10.030;2023-01-25T19:31:14;101625.84;;;3.94;60.12
46199;BME280;31928;52.104;10.030;2023-01-25T19:33:42;101623.47;;;3.91;60.13
46199;BME280;31928;52.104;10.030;2023-01-25T19:36:14;101625.53;;;3.97;60.38
46199;BME280;31928;52.104;10.030;2023-01-25T19:38:42;101623.34;;;3.93;60.15
46199;BME280;31928;52.104;10.030;2023-01-25T19:43:40;101611.59;;;3.95;60.31
46199;BME280;31928;52.104;10.030;2023-01-25T19:46:16;101612.69;;;4.02;59.98
46199;BME280;31928;52.104;10.030;2023-01-25T19:48:46;101611.31;;;3.98;60.05
46199;BME280;31928;52.104;10.030;2023-01-25T19:51:23;101597.63;;;4.03;59.90
46199;BME280;31928;52.104;10.030;2023-01-25T19:53:54;101607.41;;;4.02;60.05
46199;BME280;31928;52.104;10.030;2023-01-25T19:56:31;101608.50;;;4.00;60.02
46199;BME280;31928;52.104;10.030;2023-01-25T19:59:02;101609.06;;;4.03;59.91
46199;BME280;31928;52.104;10.030;2023-01-25T20:01:29;101604.19;;;3.99;59.95
46199;BME280;31928;52.104;10.030;2023-01-25T20:03:56;101601.22;;;4.20;59.02
46199;BME280;31928;52.104;10.030;2023-01-25T20:06:24;101604.75;;;4.02;59.40
46199;BME280;31928;52.104;10.030;2023-01-25T20:08:51;101600.41;;;4.01;59.81
46199;BME280;31928;52.104;10.030;2023-01-25T20:11:21;101595.09;;;4.01;59.84
46199;BME280;31928;52.104;10.030;2023-01-25T20:13:50;101597.91;;;4.00;59.88
46199;BME280;31928;52.104;10.030;2023-01-25T20:16:20;101595.97;;;4.02;59.67
46199;BME280;31928;52.104;10.030;2023-01-25T20:18:50;101598.03;;;3.98;59.48
46199;BME280;31928;52.104;10.030;2023-01-25T20:21:21;101590.81;;;4.00;59.50
46199;BME280;31928;52.104;10.030;2023-01-25T20:23:52;101593.72;;;3.97;59.41
46199;BME280;31928;52.104;10.030;2023-01-25T20:26:23;101585.06;;;3.95;59.51
46199;BME280;31928;52.104;10.030;2023-01-25T20:28:51;101590.63;;;3.92;59.12
46199;BME280;31928;52.104;10.030;2023-01-25T20:31:28;101587.31;;;3.90;59.15
46199;BME280;31928;52.104;10.030;2023-01-25T20:33:58;101588.00;;;3.92;59.30
46199;BME280;31928;52.104;10.030;2023-01-25T20:36:25;101582.16;;;3.89;59.13
46199;BME280;31928;52.104;10.030;2023-01-25T20:38:55;101574.34;;;3.87;59.15
46199;BME280;31928;52.104;10.030;2023-01-25T20:41:21;101580.63;;;3.86;59.17
46199;BME280;31928;52.104;10.030;2023-01-25T20:43:56;101574.03;;;3.90;59.18
46199;BME280;31928;52.104;10.030;2023-01-25T20:46:25;101585.22;;;3.84;58.87
46199;BME280;31928;52.104;10.030;2023-01-25T20:48:53;101577.25;;;3.84;59.07
46199;BME280;31928;52.104;10.030;2023-01-25T20:51:20;101573.06;;;3.82;58.90
46199;BME280;31928;52.104;10.030;2023-01-25T20:53:48;101566.94;;;3.81;58.92
46199;BME280;31928;52.104;10.030;2023-01-25T20:56:16;101565.25;;;3.80;58.88
46199;BME280;31928;52.104;10.030;2023-01-25T20:58:44;101558.28;;;3.79;58.85
46199;BME280;31928;52.104;10.030;2023-01-25T21:01:21;101562.47;;;3.82;58.73
46199;BME280;31928;52.104;10.030;2023-01-25T21:03:49;101559.38;;;3.77;58.69
46199;BME280;31928;52.104;10.030;2023-01-25T21:06:16;101556.88;;;3.75;58.85
46199;BME280;31928;52.104;10.030;2023-01-25T21:08:45;101554.22;;;3.75;58.75
46199;BME280;31928;52.104;10.030;2023-01-25T21:11:12;101560.78;;;3.71;58.13
46199;BME280;31928;52.104;10.030;2023-01-25T21:13:38;101562.19;;;3.94;58.16
46199;BME280;31928;52.104;10.030;2023-01-25T21:16:11;101557.84;;;3.74;58.02
46199;BME280;31928;52.104;10.030;2023-01-25T21:18:43;101550.19;;;3.71;58.37
46199;BME280;31928;52.104;10.030;2023-01-25T21:21:21;101542.38;;;3.70;58.35
46199;BME280;31928;52.104;10.030;2023-01-25T21:23:49;101534.88;;;3.65;58.39
46199;BME280;31928;52.104;10.030;2023-01-25T21:26:18;101536.81;;;3.63;58.51
46199;BME280;31928;52.104;10.030;2023-01-25T21:28:46;101532.75;;;3.59;58.07
46199;BME280;31928;52.104;10.030;2023-01-25T21:31:18;101535.13;;;3.62;58.27
46199;BME280;31928;52.104;10.030;2023-01-25T21:33:45;101529.53;;;3.56;58.34
46199;BME280;31928;52.104;10.030;2023-01-25T21:36:12;101521.16;;;3.51;58.25
46199;BME280;31928;52.104;10.030;2023-01-25T21:38:43;101522.84;;;3.52;58.57
46199;BME280;31928;52.104;10.030;2023-01-25T21:41:19;101516.72;;;3.52;58.91
46199;BME280;31928;52.104;10.030;2023-01-25T21:43:48;101519.38;;;3.52;58.92
46199;BME280;31928;52.104;10.030;2023-01-25T21:46:33;101514.34;;;3.49;58.72
46199;BME280;31928;52.104;10.030;2023-01-25T21:49:02;101509.75;;;3.51;59.05
46199;BME280;31928;52.104;10.030;2023-01-25T21:51:49;101509.75;;;3.51;58.84
46199;BME280;31928;52.104;10.030;2023-01-25T21:54:27;101519.09;;;3.55;58.98
46199;BME280;31928;52.104;10.030;2023-01-25T21:56:55;101514.34;;;3.49;58.65
46199;BME280;31928;52.104;10.030;2023-01-25T21:59:22;101509.19;;;3.47;58.67
46199;BME280;31928;52.104;10.030;2023-01-25T22:01:49;101515.34;;;3.48;58.89
46199;BME280;31928;52.104;10.030;2023-01-25T22:04:19;101507.50;;;3.46;58.74
46199;BME280;31928;52.104;10.030;2023-01-25T22:06:46;101512.78;;;3.46;58.83
46199;BME280;31928;52.104;10.030;2023-01-25T22:09:14;101524.25;;;3.47;58.87
46199;BME280;31928;52.104;10.030;2023-01-25T22:11:41;101524.25;;;3.47;58.77
46199;BME280;31928;52.104;10.030;2023-01-25T22:14:12;101529.56;;;3.47;58.91
46199;BME280;31928;52.104;10.030;2023-01-25T22:16:39;101524.25;;;3.47;58.72
46199;BME280;31928;52.104;10.030;2023-01-25T22:19:05;101511.00;;;3.47;58.82
46199;BME280;31928;52.104;10.030;2023-01-25T22:21:35;101507.19;;;3.68;58.37
46199;BME280;31928;52.104;10.030;2023-01-25T22:24:03;101511.41;;;3.52;58.78
46199;BME280;31928;52.104;10.030;2023-01-25T22:29:33;101512.69;;;3.48;58.49
46199;BME280;31928;52.104;10.030;2023-01-25T22:32:00;101505.69;;;3.47;58.47
46199;BME280;31928;52.104;10.030;2023-01-25T22:34:27;101506.66;;;3.46;58.36
46199;BME280;31928;52.104;10.030;2023-01-25T22:36:54;101511.97;;;3.46;58.59
46199;BME280;31928;52.104;10.030;2023-01-25T22:39:20;101512.78;;;3.46;58.61
46199;BME280;31928;52.104;10.030;2023-01-25T22:41:47;101520.06;;;3.44;58.50
46199;BME280;31928;52.104;10.030;2023-01-25T22:44:13;101511.41;;;3.42;58.18
46199;BME280;31928;52.104;10.030;2023-01-25T22:46:40;101500.81;;;3.42;58.24
46199;BME280;31928;52.104;10.030;2023-01-25T22:49:06;101510.59;;;3.42;58.13
46199;BME280;31928;52.104;10.030;2023-01-25T22:51:33;101510.88;;;3.39;58.06
46199;BME280;31928;52.104;10.030;2023-01-25T22:53:59;101501.25;;;3.38;58.15
46199;BME280;31928;52.104;10.030;2023-01-25T22:56:29;101501.91;;;3.40;58.36
46199;BME280;31928;52.104;10.030;2023-01-25T22:59:00;101498.03;;;3.34;58.50
46199;BME280;31928;52.104;10.030;2023-01-25T23:01:32;101500.38;;;3.37;58.63
46199;BME280;31928;52.104;10.030;2023-01-25T23:03:59;101486.59;;;3.34;58.12
46199;BME280;31928;52.104;10.030;2023-01-25T23:06:28;101501.63;;;3.33;58.30
46199;BME280;31928;52.104;10.030;2023-01-25T23:08:57;101496.50;;;3.32;58.19
46199;BME280;31928;52.104;10.030;2023-01-25T23:11:26;101496.63;;;3.30;58.25
46199;BME280;31928;52.104;10.030;2023-01-25T23:13:58;101485.34;;;3.28;58.19
46199;BME280;31928;52.104;10.030;2023-01-25T23:16:43;101470.41;;;3.27;58.13
46199;BME280;31928;52.104;10.030;2023-01-25T23:19:09;101472.22;;;3.27;57.92
46199;BME280;31928;52.104;10.030;2023-01-25T23:21:36;101480.16;;;3.27;57.95
46199;BME280;31928;52.104;10.030;2023-01-25T23:24:03;101482.13;;;3.25;58.37
46199;BME280;31928;52.104;10.030;2023-01-25T23:26:31;101471.50;;;3.44;57.62
46199;BME280;31928;52.104;10.030;2023-01-25T23:29:05;101469.56;;;3.27;58.05
46199;BME280;31928;52.104;10.030;2023-01-25T23:31:32;101462.19;;;3.21;57.88
46199;BME280;31928;52.104;10.030;2023-01-25T23:34:01;101467.34;;;3.22;58.19
46199;BME280;31928;52.104;10.030;2023-01-25T23:36:31;101467.63;;;3.19;58.10
46199;BME280;31928;52.104;10.030;2023-01-25T23:38:58;101459.13;;;3.16;58.05
46199;BME280;31928;52.104;10.030;2023-01-25T23:41:26;101451.19;;;3.16;58.14
46199;BME280;31928;52.104;10.030;2023-01-25T23:43:54;101451.19;;;3.16;58.02
46199;BME280;31928;52.104;10.030;2023-01-25T23:46:22;101439.88;;;3.14;57.88
46199;BME280;31928;52.104;10.030;2023-01-25T23:48:49;101442.38;;;3.15;57.73
46199;BME280;31928;52.104;10.030;2023-01-25T23:51:17;101449.50;;;3.15;57.56
46199;BME280;31928;52.104;10.030;2023-01-25T23:53:44;101453.25;;;3.12;57.68
46199;BME280;31928;52.104;10.030;2023-01-25T23:56:19;101449.22;;;3.18;57.44
46199;BME280;31928;52.104;10.030;2023-01-25T23:58:46;101441.69;;;3.13;57.41
